sensor_id;sensor_type;location;lat;lon;timestamp;pressure;altitude;pressure_sealevel;temperature;humidity
62524;BME280;53689;56.878;60.672;2023-04-10T00:01:59;98012.09;;;24.08;17.91
62524;BME280;53689;56.878;60.672;2023-04-10T00:04:26;98015.88;;;24.07;16.48
62524;BME280;53689;56.878;60.672;2023-04-10T00:06:55;98010.69;;;24.05;18.21
62524;BME280;53689;56.878;60.672;2023-04-10T00:09:22;98017.50;;;24.08;18.03
62524;BME280;53689;56.878;60.672;2023-04-10T00:11:49;98012.34;;;24.06;17.46
62524;BME280;53689;56.878;60.672;2023-04-10T00:14:17;98020.22;;;24.08;17.29
62524;BME280;53689;56.878;60.672;2023-04-10T00:16:44;98019.63;;;24.06;17.30
62524;BME280;53689;56.878;60.672;2023-04-10T00:19:11;98017.50;;;24.08;17.71
62524;BME280;53689;56.878;60.672;2023-04-10T00:21:38;98003.19;;;24.07;17.37
62524;BME280;53689;56.878;60.672;2023-04-10T00:24:07;98012.09;;;24.08;17.88
62524;BME280;53689;56.878;60.672;2023-04-10T00:26:34;98005.03;;;24.07;17.77
62524;BME280;53689;56.878;60.672;2023-04-10T00:29:02;97999.63;;;24.07;16.92
62524;BME280;53689;56.878;60.672;2023-04-10T00:31:29;97992.13;;;24.09;17.92
62524;BME280;53689;56.878;60.672;2023-04-10T00:33:56;97999.44;;;24.08;18.55
62524;BME280;53689;56.878;60.672;2023-04-10T00:36:23;97998.59;;;24.08;17.88
62524;BME280;53689;56.878;60.672;2023-04-10T00:38:51;97994.22;;;24.07;18.18
62524;BME280;53689;56.878;60.672;2023-04-10T00:41:19;97996.94;;;24.07;17.81
62524;BME280;53689;56.878;60.672;2023-04-10T00:43:46;97995.88;;;24.08;18.61
62524;BME280;53689;56.878;60.672;2023-04-10T00:46:14;97994.22;;;24.07;18.09
62524;BME280;53689;56.878;60.672;2023-04-10T00:48:41;97990.91;;;24.05;16.59
62524;BME280;53689;56.878;60.672;2023-04-10T00:51:08;97990.47;;;24.08;18.66
62524;BME280;53689;56.878;60.672;2023-04-10T00:53:35;97992.38;;;24.07;17.93
62524;BME280;53689;56.878;60.672;2023-04-10T00:56:02;97985.91;;;24.08;18.35
62524;BME280;53689;56.878;60.672;2023-04-10T00:58:31;97981.56;;;24.07;18.02
62524;BME280;53689;56.878;60.672;2023-04-10T01:00:58;97980.09;;;24.05;17.53
62524;BME280;53689;56.878;60.672;2023-04-10T01:03:25;97984.47;;;24.06;18.23
62524;BME280;53689;56.878;60.672;2023-04-10T01:05:55;97980.50;;;24.08;18.44
62524;BME280;53689;56.878;60.672;2023-04-10T01:08:29;97979.91;;;24.06;17.63
62524;BME280;53689;56.878;60.672;2023-04-10T01:11:04;97993.41;;;24.06;17.56
62524;BME280;53689;56.878;60.672;2023-04-10T01:13:35;97994.22;;;24.07;17.69
62524;BME280;53689;56.878;60.672;2023-04-10T01:16:10;97987.16;;;24.06;18.17
62524;BME280;53689;56.878;60.672;2023-04-10T01:18:38;97984.25;;;24.07;17.73
62524;BME280;53689;56.878;60.672;2023-04-10T01:21:07;97978.84;;;24.07;17.73
62524;BME280;53689;56.878;60.672;2023-04-10T01:23:53;97981.75;;;24.06;18.48
62524;BME280;53689;56.878;60.672;2023-04-10T01:26:31;97978.00;;;24.07;18.15
62524;BME280;53689;56.878;60.672;2023-04-10T01:29:04;97977.59;;;24.03;15.78
62524;BME280;53689;56.878;60.672;2023-04-10T01:31:34;97972.91;;;23.92;15.92
62524;BME280;53689;56.878;60.672;2023-04-10T01:34:04;97971.31;;;23.84;16.76
62524;BME280;53689;56.878;60.672;2023-04-10T01:36:33;97966.16;;;23.76;17.53
62524;BME280;53689;56.878;60.672;2023-04-10T01:39:01;97970.63;;;23.63;17.13
62524;BME280;53689;56.878;60.672;2023-04-10T01:41:30;97965.09;;;23.51;16.83
62524;BME280;53689;56.878;60.672;2023-04-10T01:43:57;97968.88;;;23.44;18.01
62524;BME280;53689;56.878;60.672;2023-04-10T01:46:27;97968.88;;;23.44;16.42
62524;BME280;53689;56.878;60.672;2023-04-10T01:48:56;97972.59;;;23.42;15.80
62524;BME280;53689;56.878;60.672;2023-04-10T01:51:25;97969.03;;;23.49;15.10
62524;BME280;53689;56.878;60.672;2023-04-10T01:53:53;97961.16;;;23.47;14.97
62524;BME280;53689;56.878;60.672;2023-04-10T01:56:24;97955.19;;;23.38;14.91
62524;BME280;53689;56.878;60.672;2023-04-10T01:58:51;97953.31;;;23.39;14.91
62524;BME280;53689;56.878;60.672;2023-04-10T02:01:18;97948.47;;;23.48;14.57
62524;BME280;53689;56.878;60.672;2023-04-10T02:03:57;97943.69;;;23.50;14.26
62524;BME280;53689;56.878;60.672;2023-04-10T02:06:26;97942.81;;;23.56;14.39
62524;BME280;53689;56.878;60.672;2023-04-10T02:08:56;97942.16;;;23.61;14.37
62524;BME280;53689;56.878;60.672;2023-04-10T02:11:28;97936.75;;;23.61;13.95
62524;BME280;53689;56.878;60.672;2023-04-10T02:13:59;97941.75;;;23.57;13.96
62524;BME280;53689;56.878;60.672;2023-04-10T02:16:27;97942.22;;;23.54;14.51
62524;BME280;53689;56.878;60.672;2023-04-10T02:18:56;97941.59;;;23.52;14.03
62524;BME280;53689;56.878;60.672;2023-04-10T02:21:24;97937.47;;;23.49;14.10
62524;BME280;53689;56.878;60.672;2023-04-10T02:23:52;97938.72;;;23.47;13.84
62524;BME280;53689;56.878;60.672;2023-04-10T02:26:19;97940.16;;;23.49;14.02
62524;BME280;53689;56.878;60.672;2023-04-10T02:28:47;97934.75;;;23.49;13.54
62524;BME280;53689;56.878;60.672;2023-04-10T02:31:14;97928.13;;;23.45;13.88
62524;BME280;53689;56.878;60.672;2023-04-10T02:33:44;97937.72;;;23.41;13.65
62524;BME280;53689;56.878;60.672;2023-04-10T02:36:13;97933.78;;;23.37;13.97
62524;BME280;53689;56.878;60.672;2023-04-10T02:38:40;97929.22;;;23.37;14.20
62524;BME280;53689;56.878;60.672;2023-04-10T02:41:08;97918.81;;;23.41;14.01
62524;BME280;53689;56.878;60.672;2023-04-10T02:43:36;97920.28;;;23.37;13.90
62524;BME280;53689;56.878;60.672;2023-04-10T02:46:03;97915.53;;;23.32;14.30
62524;BME280;53689;56.878;60.672;2023-04-10T02:48:36;97918.84;;;23.27;14.14
62524;BME280;53689;56.878;60.672;2023-04-10T02:51:04;97910.78;;;23.21;14.08
62524;BME280;53689;56.878;60.672;2023-04-10T02:53:33;97917.69;;;23.17;15.16
62524;BME280;53689;56.878;60.672;2023-04-10T02:56:00;97913.94;;;23.18;13.94
62524;BME280;53689;56.878;60.672;2023-04-10T02:58:28;97911.69;;;23.14;14.07
62524;BME280;53689;56.878;60.672;2023-04-10T03:00:56;97911.03;;;23.12;14.20
62524;BME280;53689;56.878;60.672;2023-04-10T03:03:41;97909.38;;;23.11;14.04
62524;BME280;53689;56.878;60.672;2023-04-10T03:06:09;97907.94;;;23.16;14.21
62524;BME280;53689;56.878;60.672;2023-04-10T03:08:40;97907.13;;;23.08;13.91
62524;BME280;53689;56.878;60.672;2023-04-10T03:11:07;97906.94;;;23.03;14.47
62524;BME280;53689;56.878;60.672;2023-04-10T03:13:34;97906.19;;;22.96;14.32
62524;BME280;53689;56.878;60.672;2023-04-10T03:16:01;97901.66;;;22.83;14.87
62524;BME280;53689;56.878;60.672;2023-04-10T03:18:29;97898.53;;;22.86;14.62
62524;BME280;53689;56.878;60.672;2023-04-10T03:20:56;97885.06;;;22.79;14.40
62524;BME280;53689;56.878;60.672;2023-04-10T03:23:23;97890.25;;;22.74;14.16
62524;BME280;53689;56.878;60.672;2023-04-10T03:25:52;97884.06;;;22.73;14.53
62524;BME280;53689;56.878;60.672;2023-04-10T03:28:22;97881.13;;;22.82;14.15
62524;BME280;53689;56.878;60.672;2023-04-10T03:30:50;97879.84;;;22.84;14.15
62524;BME280;53689;56.878;60.672;2023-04-10T03:33:17;97880.44;;;22.93;13.68
62524;BME280;53689;56.878;60.672;2023-04-10T03:35:44;97884.94;;;22.99;13.79
62524;BME280;53689;56.878;60.672;2023-04-10T03:38:11;97868.09;;;23.04;13.98
62524;BME280;53689;56.878;60.672;2023-04-10T03:40:39;97872.91;;;23.02;13.52
62524;BME280;53689;56.878;60.672;2023-04-10T03:43:10;97869.34;;;23.08;13.66
62524;BME280;53689;56.878;60.672;2023-04-10T03:45:37;97878.28;;;23.02;14.21
62524;BME280;53689;56.878;60.672;2023-04-10T03:48:04;97880.44;;;22.93;14.76
62524;BME280;53689;56.878;60.672;2023-04-10T03:50:39;97873.16;;;22.94;14.57
62524;BME280;53689;56.878;60.672;2023-04-10T03:53:06;97878.34;;;22.95;15.30
62524;BME280;53689;56.878;60.672;2023-04-10T03:55:34;97875.69;;;22.89;15.04
62524;BME280;53689;56.878;60.672;2023-04-10T03:58:01;97874.78;;;22.95;14.78
62524;BME280;53689;56.878;60.672;2023-04-10T04:00:31;97878.97;;;22.91;14.56
62524;BME280;53689;56.878;60.672;2023-04-10T04:03:19;97881.31;;;22.80;14.56
62524;BME280;53689;56.878;60.672;2023-04-10T04:06:06;97873.38;;;22.85;15.07
62524;BME280;53689;56.878;60.672;2023-04-10T04:08:48;97866.59;;;22.76;15.08
62524;BME280;53689;56.878;60.672;2023-04-10T04:11:45;97862.22;;;22.82;16.27
62524;BME280;53689;56.878;60.672;2023-04-10T04:14:32;97863.00;;;22.89;14.43
62524;BME280;53689;56.878;60.672;2023-04-10T04:17:19;97862.94;;;23.03;14.10
62524;BME280;53689;56.878;60.672;2023-04-10T04:20:12;97859.41;;;23.02;13.68
62524;BME280;53689;56.878;60.672;2023-04-10T04:23:18;97861.44;;;23.07;14.48
62524;BME280;53689;56.878;60.672;2023-04-10T04:26:03;97857.28;;;23.04;13.88
62524;BME280;53689;56.878;60.672;2023-04-10T04:29:00;97847.75;;;23.08;13.54
62524;BME280;53689;56.878;60.672;2023-04-10T04:31:51;97848.59;;;23.02;14.37
62524;BME280;53689;56.878;60.672;2023-04-10T04:34:35;97845.19;;;22.81;14.26
62524;BME280;53689;56.878;60.672;2023-04-10T04:37:13;97840.59;;;22.89;14.58
62524;BME280;53689;56.878;60.672;2023-04-10T04:39:58;97834.38;;;23.20;15.82
62524;BME280;53689;56.878;60.672;2023-04-10T04:42:57;97837.72;;;23.16;16.73
62524;BME280;53689;56.878;60.672;2023-04-10T04:45:54;97830.44;;;23.16;15.76
62524;BME280;53689;56.878;60.672;2023-04-10T04:48:46;97834.31;;;23.27;14.89
62524;BME280;53689;56.878;60.672;2023-04-10T04:51:32;97833.44;;;23.33;15.06
62524;BME280;53689;56.878;60.672;2023-04-10T04:54:06;97830.16;;;23.31;14.25
62524;BME280;53689;56.878;60.672;2023-04-10T04:56:57;97826.84;;;23.29;14.19
62524;BME280;53689;56.878;60.672;2023-04-10T04:59:50;97835.88;;;23.09;15.61
62524;BME280;53689;56.878;60.672;2023-04-10T05:02:36;97826.91;;;23.16;15.96
62524;BME280;53689;56.878;60.672;2023-04-10T05:05:21;97832.63;;;23.00;15.03
62524;BME280;53689;56.878;60.672;2023-04-10T05:08:11;97825.03;;;23.16;14.87
62524;BME280;53689;56.878;60.672;2023-04-10T05:10:45;97832.47;;;23.21;14.97
62524;BME280;53689;56.878;60.672;2023-04-10T05:13:22;97824.91;;;23.36;14.61
62524;BME280;53689;56.878;60.672;2023-04-10T05:16:24;97832.38;;;23.41;14.42
62524;BME280;53689;56.878;60.672;2023-04-10T05:18:57;97825.59;;;23.32;15.81
62524;BME280;53689;56.878;60.672;2023-04-10T05:21:43;97814.19;;;23.23;15.61
62524;BME280;53689;56.878;60.672;2023-04-10T05:24:43;97824.38;;;23.21;15.92
62524;BME280;53689;56.878;60.672;2023-04-10T05:27:14;97831.00;;;22.93;16.13
62524;BME280;53689;56.878;60.672;2023-04-10T05:30:19;97830.66;;;23.14;15.32
62524;BME280;53689;56.878;60.672;2023-04-10T05:33:10;97824.31;;;23.27;16.01
62524;BME280;53689;56.878;60.672;2023-04-10T05:36:01;97824.22;;;23.16;16.52
62524;BME280;53689;56.878;60.672;2023-04-10T05:38:50;97825.59;;;23.32;16.31
62524;BME280;53689;56.878;60.672;2023-04-10T05:41:46;97826.19;;;23.34;15.32
62524;BME280;53689;56.878;60.672;2023-04-10T05:44:37;97818.84;;;23.41;14.99
62524;BME280;53689;56.878;60.672;2023-04-10T05:47:23;97820.13;;;23.38;16.29
62524;BME280;53689;56.878;60.672;2023-04-10T05:50:10;97818.38;;;23.19;15.67
62524;BME280;53689;56.878;60.672;2023-04-10T05:52:53;97816.69;;;22.92;15.71
62524;BME280;53689;56.878;60.672;2023-04-10T05:55:43;97813.81;;;23.19;15.92
62524;BME280;53689;56.878;60.672;2023-04-10T05:58:34;97812.91;;;23.00;15.95
62524;BME280;53689;56.878;60.672;2023-04-10T06:01:13;97817.81;;;23.10;16.12
62524;BME280;53689;56.878;60.672;2023-04-10T06:03:52;97820.81;;;22.95;16.05
62524;BME280;53689;56.878;60.672;2023-04-10T06:06:20;97821.09;;;22.86;15.47
62524;BME280;53689;56.878;60.672;2023-04-10T06:08:48;97820.44;;;22.52;15.96
62524;BME280;53689;56.878;60.672;2023-04-10T06:11:15;97808.44;;;22.80;15.79
62524;BME280;53689;56.878;60.672;2023-04-10T06:13:50;97805.41;;;22.70;15.74
62524;BME280;53689;56.878;60.672;2023-04-10T06:16:20;97814.19;;;21.66;15.30
62524;BME280;53689;56.878;60.672;2023-04-10T06:18:48;97810.69;;;22.51;15.78
62524;BME280;53689;56.878;60.672;2023-04-10T06:21:15;97803.91;;;22.74;15.77
62524;BME280;53689;56.878;60.672;2023-04-10T06:23:45;97806.59;;;22.74;15.16
62524;BME280;53689;56.878;60.672;2023-04-10T06:26:12;97803.41;;;22.91;14.74
62524;BME280;53689;56.878;60.672;2023-04-10T06:28:39;97807.22;;;22.76;14.94
62524;BME280;53689;56.878;60.672;2023-04-10T06:31:11;97810.25;;;21.48;15.33
62524;BME280;53689;56.878;60.672;2023-04-10T06:33:39;97811.72;;;21.37;15.01
62524;BME280;53689;56.878;60.672;2023-04-10T06:36:08;97807.59;;;21.28;15.36
62524;BME280;53689;56.878;60.672;2023-04-10T06:38:46;97802.41;;;21.53;14.74
62524;BME280;53689;56.878;60.672;2023-04-10T06:41:13;97794.94;;;22.35;14.90
62524;BME280;53689;56.878;60.672;2023-04-10T06:43:40;97789.16;;;22.77;14.45
62524;BME280;53689;56.878;60.672;2023-04-10T06:46:08;97798.25;;;22.82;14.58
62524;BME280;53689;56.878;60.672;2023-04-10T06:48:36;97790.75;;;22.91;14.50
62524;BME280;53689;56.878;60.672;2023-04-10T06:51:04;97778.84;;;22.99;14.42
62524;BME280;53689;56.878;60.672;2023-04-10T06:53:32;97774.97;;;22.88;14.29
62524;BME280;53689;56.878;60.672;2023-04-10T06:56:00;97775.69;;;23.02;14.09
62524;BME280;53689;56.878;60.672;2023-04-10T06:58:29;97776.88;;;23.13;14.64
62524;BME280;53689;56.878;60.672;2023-04-10T07:00:57;97769.66;;;23.07;14.61
62524;BME280;53689;56.878;60.672;2023-04-10T07:03:25;97760.56;;;23.01;14.48
62524;BME280;53689;56.878;60.672;2023-04-10T07:05:54;97760.31;;;22.77;15.02
62524;BME280;53689;56.878;60.672;2023-04-10T07:08:21;97751.84;;;22.99;14.93
62524;BME280;53689;56.878;60.672;2023-04-10T07:10:48;97744.53;;;23.06;16.44
62524;BME280;53689;56.878;60.672;2023-04-10T07:13:16;97748.63;;;23.16;14.98
62524;BME280;53689;56.878;60.672;2023-04-10T07:15:43;97741.38;;;23.09;14.65
62524;BME280;53689;56.878;60.672;2023-04-10T07:18:10;97747.56;;;23.17;15.14
62524;BME280;53689;56.878;60.672;2023-04-10T07:20:37;97743.91;;;23.04;15.63
62524;BME280;53689;56.878;60.672;2023-04-10T07:23:06;97742.38;;;22.90;15.30
62524;BME280;53689;56.878;60.672;2023-04-10T07:25:34;97733.75;;;23.06;15.97
62524;BME280;53689;56.878;60.672;2023-04-10T07:28:01;97737.06;;;22.76;16.34
62524;BME280;53689;56.878;60.672;2023-04-10T07:30:29;97736.91;;;22.96;15.98
62524;BME280;53689;56.878;60.672;2023-04-10T07:32:56;97734.78;;;22.73;15.94
62524;BME280;53689;56.878;60.672;2023-04-10T07:35:24;97748.69;;;22.77;15.83
62524;BME280;53689;56.878;60.672;2023-04-10T07:37:51;97748.50;;;22.33;16.02
62524;BME280;53689;56.878;60.672;2023-04-10T07:40:21;97759.00;;;22.48;16.46
62524;BME280;53689;56.878;60.672;2023-04-10T07:42:48;97756.72;;;22.51;15.79
62524;BME280;53689;56.878;60.672;2023-04-10T07:45:18;97751.16;;;22.39;16.03
62524;BME280;53689;56.878;60.672;2023-04-10T07:47:46;97755.03;;;22.57;15.99
62524;BME280;53689;56.878;60.672;2023-04-10T07:50:14;97747.47;;;22.72;15.78
62524;BME280;53689;56.878;60.672;2023-04-10T07:52:41;97747.78;;;22.90;14.83
62524;BME280;53689;56.878;60.672;2023-04-10T07:55:09;97749.81;;;22.94;14.97
62524;BME280;53689;56.878;60.672;2023-04-10T07:57:38;97744.34;;;22.30;16.94
62524;BME280;53689;56.878;60.672;2023-04-10T08:00:08;97744.19;;;22.18;16.85
62524;BME280;53689;56.878;60.672;2023-04-10T08:02:38;97743.50;;;22.75;16.42
62524;BME280;53689;56.878;60.672;2023-04-10T08:05:06;97746.00;;;22.77;15.29
62524;BME280;53689;56.878;60.672;2023-04-10T08:07:34;97739.41;;;22.98;15.83
62524;BME280;53689;56.878;60.672;2023-04-10T08:10:02;97743.53;;;23.00;15.60
62524;BME280;53689;56.878;60.672;2023-04-10T08:12:29;97748.91;;;22.75;15.58
62524;BME280;53689;56.878;60.672;2023-04-10T08:15:01;97750.19;;;22.66;15.66
62524;BME280;53689;56.878;60.672;2023-04-10T08:17:28;97755.09;;;22.50;16.38
62524;BME280;53689;56.878;60.672;2023-04-10T08:19:56;97746.53;;;22.53;16.04
62524;BME280;53689;56.878;60.672;2023-04-10T08:22:24;97749.00;;;22.62;16.17
62524;BME280;53689;56.878;60.672;2023-04-10T08:24:51;97748.13;;;22.68;16.11
62524;BME280;53689;56.878;60.672;2023-04-10T08:27:19;97751.59;;;22.75;15.70
62524;BME280;53689;56.878;60.672;2023-04-10T08:29:47;97745.25;;;22.17;16.03
62524;BME280;53689;56.878;60.672;2023-04-10T08:32:15;97751.53;;;21.97;17.31
62524;BME280;53689;56.878;60.672;2023-04-10T08:34:43;97756.47;;;22.14;16.66
62524;BME280;53689;56.878;60.672;2023-04-10T08:37:11;97750.72;;;22.49;16.26
62524;BME280;53689;56.878;60.672;2023-04-10T08:39:38;97755.34;;;22.28;15.77
62524;BME280;53689;56.878;60.672;2023-04-10T08:42:06;97754.75;;;22.26;16.01
62524;BME280;53689;56.878;60.672;2023-04-10T08:44:34;97760.13;;;22.26;15.46
62524;BME280;53689;56.878;60.672;2023-04-10T08:47:01;97761.44;;;22.10;15.65
62524;BME280;53689;56.878;60.672;2023-04-10T08:49:48;97759.06;;;21.82;15.52
62524;BME280;53689;56.878;60.672;2023-04-10T08:52:20;97772.72;;;21.67;15.96
62524;BME280;53689;56.878;60.672;2023-04-10T08:54:48;97761.88;;;22.00;15.57
62524;BME280;53689;56.878;60.672;2023-04-10T08:57:17;97755.09;;;21.91;15.81
62524;BME280;53689;56.878;60.672;2023-04-10T08:59:45;97757.13;;;22.02;15.73
62524;BME280;53689;56.878;60.672;2023-04-10T09:02:13;97759.97;;;22.21;15.83
62524;BME280;53689;56.878;60.672;2023-04-10T09:04:42;97752.94;;;22.20;16.57
62524;BME280;53689;56.878;60.672;2023-04-10T09:07:14;97738.56;;;22.26;16.15
62524;BME280;53689;56.878;60.672;2023-04-10T09:09:42;97745.50;;;22.54;16.15
62524;BME280;53689;56.878;60.672;2023-04-10T09:12:10;97763.03;;;22.70;15.36
62524;BME280;53689;56.878;60.672;2023-04-10T09:14:39;97758.22;;;22.79;15.17
62524;BME280;53689;56.878;60.672;2023-04-10T09:17:13;97766.97;;;22.75;15.98
62524;BME280;53689;56.878;60.672;2023-04-10T09:19:44;97751.91;;;22.92;15.06
62524;BME280;53689;56.878;60.672;2023-04-10T09:22:12;97763.22;;;21.78;15.58
62524;BME280;53689;56.878;60.672;2023-04-10T09:24:40;97776.72;;;21.10;15.81
62524;BME280;53689;56.878;60.672;2023-04-10T09:27:08;97758.22;;;21.81;16.15
62524;BME280;53689;56.878;60.672;2023-04-10T09:29:43;97759.44;;;22.38;16.17
62524;BME280;53689;56.878;60.672;2023-04-10T09:32:11;97757.28;;;22.60;15.74
62524;BME280;53689;56.878;60.672;2023-04-10T09:34:52;97751.09;;;22.59;16.29
62524;BME280;53689;56.878;60.672;2023-04-10T09:37:21;97753.28;;;22.24;16.19
62524;BME280;53689;56.878;60.672;2023-04-10T09:39:49;97764.59;;;22.46;16.24
62524;BME280;53689;56.878;60.672;2023-04-10T09:42:16;97762.28;;;22.63;16.00
62524;BME280;53689;56.878;60.672;2023-04-10T09:44:55;97756.84;;;22.70;16.22
62524;BME280;53689;56.878;60.672;2023-04-10T09:47:23;97763.56;;;22.86;15.79
62524;BME280;53689;56.878;60.672;2023-04-10T09:49:52;97757.78;;;22.82;15.95
62524;BME280;53689;56.878;60.672;2023-04-10T09:52:20;97770.72;;;21.42;17.34
62524;BME280;53689;56.878;60.672;2023-04-10T09:54:48;97778.34;;;20.84;16.43
62524;BME280;53689;56.878;60.672;2023-04-10T09:57:16;97785.50;;;20.57;16.82
62524;BME280;53689;56.878;60.672;2023-04-10T09:59:45;97777.72;;;20.89;16.72
62524;BME280;53689;56.878;60.672;2023-04-10T10:02:15;97787.69;;;21.56;16.75
62524;BME280;53689;56.878;60.672;2023-04-10T10:04:43;97775.44;;;22.39;17.02
62524;BME280;53689;56.878;60.672;2023-04-10T10:07:13;97777.47;;;22.51;16.38
62524;BME280;53689;56.878;60.672;2023-04-10T10:09:42;97790.31;;;22.55;16.72
62524;BME280;53689;56.878;60.672;2023-04-10T10:12:10;97792.53;;;22.20;16.58
62524;BME280;53689;56.878;60.672;2023-04-10T10:14:39;97782.69;;;22.45;16.73
62524;BME280;53689;56.878;60.672;2023-04-10T10:17:09;97795.06;;;22.08;17.00
62524;BME280;53689;56.878;60.672;2023-04-10T10:19:43;97785.44;;;22.25;17.71
62524;BME280;53689;56.878;60.672;2023-04-10T10:22:13;97783.44;;;22.00;16.90
62524;BME280;53689;56.878;60.672;2023-04-10T10:24:43;97774.28;;;22.15;17.77
62524;BME280;53689;56.878;60.672;2023-04-10T10:27:11;97781.88;;;22.38;17.95
62524;BME280;53689;56.878;60.672;2023-04-10T10:29:41;97779.53;;;22.55;16.25
62524;BME280;53689;56.878;60.672;2023-04-10T10:32:10;97779.38;;;22.43;16.83
62524;BME280;53689;56.878;60.672;2023-04-10T10:34:37;97796.22;;;22.78;16.40
62524;BME280;53689;56.878;60.672;2023-04-10T10:37:06;97786.00;;;22.86;16.25
62524;BME280;53689;56.878;60.672;2023-04-10T10:39:40;97789.31;;;22.89;16.08
62524;BME280;53689;56.878;60.672;2023-04-10T10:42:10;97795.50;;;22.96;16.28
62524;BME280;53689;56.878;60.672;2023-04-10T10:44:42;97792.56;;;22.65;17.22
62524;BME280;53689;56.878;60.672;2023-04-10T10:47:13;97801.81;;;22.76;17.00
62524;BME280;53689;56.878;60.672;2023-04-10T10:49:51;97804.25;;;22.84;17.03
62524;BME280;53689;56.878;60.672;2023-04-10T10:52:41;97810.44;;;22.59;16.41
62524;BME280;53689;56.878;60.672;2023-04-10T10:58:05;97812.78;;;22.49;16.74
62524;BME280;53689;56.878;60.672;2023-04-10T11:03:27;97821.03;;;22.48;15.98
62524;BME280;53689;56.878;60.672;2023-04-10T11:05:55;97815.59;;;22.68;16.44
62524;BME280;53689;56.878;60.672;2023-04-10T11:11:12;97824.81;;;22.33;15.79
62524;BME280;53689;56.878;60.672;2023-04-10T11:13:41;97836.34;;;22.01;15.75
62524;BME280;53689;56.878;60.672;2023-04-10T11:16:08;97825.19;;;21.91;15.99
62524;BME280;53689;56.878;60.672;2023-04-10T11:21:59;97824.31;;;21.97;17.14
62524;BME280;53689;56.878;60.672;2023-04-10T11:24:27;97821.84;;;21.89;16.44
62524;BME280;53689;56.878;60.672;2023-04-10T11:26:55;97810.63;;;22.06;16.19
62524;BME280;53689;56.878;60.672;2023-04-10T11:29:33;97816.63;;;22.08;15.88
62524;BME280;53689;56.878;60.672;2023-04-10T11:32:02;97821.22;;;21.94;15.35
62524;BME280;53689;56.878;60.672;2023-04-10T11:34:30;97820.41;;;21.80;16.17
62524;BME280;53689;56.878;60.672;2023-04-10T11:36:58;97826.44;;;21.82;15.83
62524;BME280;53689;56.878;60.672;2023-04-10T11:39:26;97832.41;;;21.97;15.66
62524;BME280;53689;56.878;60.672;2023-04-10T11:41:53;97824.25;;;22.24;15.70
62524;BME280;53689;56.878;60.672;2023-04-10T11:44:28;97831.25;;;22.32;15.06
62524;BME280;53689;56.878;60.672;2023-04-10T11:46:58;97830.19;;;22.53;14.74
62524;BME280;53689;56.878;60.672;2023-04-10T11:49:26;97833.44;;;22.69;15.08
62524;BME280;53689;56.878;60.672;2023-04-10T11:51:54;97835.78;;;22.45;15.33
62524;BME280;53689;56.878;60.672;2023-04-10T11:54:23;97832.69;;;22.48;15.15
62524;BME280;53689;56.878;60.672;2023-04-10T11:56:56;97837.22;;;22.54;15.36
62524;BME280;53689;56.878;60.672;2023-04-10T11:59:25;97843.53;;;22.14;15.37
62524;BME280;53689;56.878;60.672;2023-04-10T12:01:53;97841.56;;;21.83;15.63
62524;BME280;53689;56.878;60.672;2023-04-10T12:04:22;97851.47;;;21.62;15.43
62524;BME280;53689;56.878;60.672;2023-04-10T12:06:51;97852.72;;;21.53;15.20
62524;BME280;53689;56.878;60.672;2023-04-10T12:09:20;97861.44;;;21.61;15.11
62524;BME280;53689;56.878;60.672;2023-04-10T12:11:48;97856.91;;;21.75;14.97
62524;BME280;53689;56.878;60.672;2023-04-10T12:14:18;97866.41;;;21.92;14.86
62524;BME280;53689;56.878;60.672;2023-04-10T12:16:45;97869.69;;;22.21;17.32
62524;BME280;53689;56.878;60.672;2023-04-10T12:19:13;97878.81;;;22.13;15.51
62524;BME280;53689;56.878;60.672;2023-04-10T12:21:43;97875.75;;;22.02;15.47
62524;BME280;53689;56.878;60.672;2023-04-10T12:24:10;97871.16;;;22.03;15.29
62524;BME280;53689;56.878;60.672;2023-04-10T12:26:45;97883.63;;;21.90;16.50
62524;BME280;53689;56.878;60.672;2023-04-10T12:29:13;97882.16;;;21.61;16.02
62524;BME280;53689;56.878;60.672;2023-04-10T12:31:41;97891.50;;;21.92;15.62
62524;BME280;53689;56.878;60.672;2023-04-10T12:34:09;97894.59;;;21.35;16.49
62524;BME280;53689;56.878;60.672;2023-04-10T12:36:52;97891.69;;;21.63;16.11
62524;BME280;53689;56.878;60.672;2023-04-10T12:39:20;97892.09;;;21.33;16.50
62524;BME280;53689;56.878;60.672;2023-04-10T12:41:49;97905.78;;;21.59;16.21
62524;BME280;53689;56.878;60.672;2023-04-10T12:44:17;97907.81;;;21.43;15.90
62524;BME280;53689;56.878;60.672;2023-04-10T12:46:45;97901.22;;;21.59;16.14
62524;BME280;53689;56.878;60.672;2023-04-10T12:49:13;97913.03;;;21.52;15.82
62524;BME280;53689;56.878;60.672;2023-04-10T12:51:41;97912.63;;;21.55;15.77
62524;BME280;53689;56.878;60.672;2023-04-10T12:54:10;97903.69;;;21.61;15.73
62524;BME280;53689;56.878;60.672;2023-04-10T12:56:39;97912.88;;;21.73;15.67
62524;BME280;53689;56.878;60.672;2023-04-10T12:59:07;97915.75;;;21.65;16.05
62524;BME280;53689;56.878;60.672;2023-04-10T13:01:36;97914.53;;;21.68;15.65
62524;BME280;53689;56.878;60.672;2023-04-10T13:04:04;97918.25;;;21.87;15.71
62524;BME280;53689;56.878;60.672;2023-04-10T13:06:32;97920.28;;;21.51;15.83
62524;BME280;53689;56.878;60.672;2023-04-10T13:09:00;97923.38;;;21.41;16.09
62524;BME280;53689;56.878;60.672;2023-04-10T13:11:29;97922.75;;;21.53;16.10
62524;BME280;53689;56.878;60.672;2023-04-10T13:13:56;97922.13;;;21.57;15.77
62524;BME280;53689;56.878;60.672;2023-04-10T13:16:25;97921.28;;;21.37;16.18
62524;BME280;53689;56.878;60.672;2023-04-10T13:18:52;97917.91;;;21.07;15.92
62524;BME280;53689;56.878;60.672;2023-04-10T13:21:21;97920.47;;;21.49;15.70
62524;BME280;53689;56.878;60.672;2023-04-10T13:23:49;97917.00;;;21.69;17.41
62524;BME280;53689;56.878;60.672;2023-04-10T13:26:17;97924.25;;;21.96;17.20